sensor_id;sensor_type;location;lat;lon;timestamp;P1;durP1;ratioP1;P2;durP2;ratioP2
22359;SDS011;11347;52.030;4.690;2022-10-31T00:00:52;4.00;;;1.20;;
22359;SDS011;11347;52.030;4.690;2022-10-31T00:03:17;3.37;;;1.30;;
22359;SDS011;11347;52.030;4.690;2022-10-31T00:05:44;2.43;;;1.27;;
22359;SDS011;11347;52.030;4.690;2022-10-31T00:08:11;2.93;;;1.33;;
22359;SDS011;11347;52.030;4.690;2022-10-31T00:10:37;2.27;;;1.10;;
22359;SDS011;11347;52.030;4.690;2022-10-31T00:13:07;2.67;;;1.00;;
22359;SDS011;11347;52.030;4.690;2022-10-31T00:15:34;2.00;;;1.00;;
22359;SDS011;11347;52.030;4.690;2022-10-31T00:18:02;2.07;;;1.13;;
22359;SDS011;11347;52.030;4.690;2022-10-31T00:20:28;2.87;;;1.30;;
22359;SDS011;11347;52.030;4.690;2022-10-31T00:23:01;2.93;;;1.33;;
22359;SDS011;11347;52.030;4.690;2022-10-31T00:25:28;2.27;;;1.30;;
22359;SDS011;11347;52.030;4.690;2022-10-31T00:27:57;2.70;;;1.20;;
22359;SDS011;11347;52.030;4.690;2022-10-31T00:30:23;3.23;;;1.20;;
22359;SDS011;11347;52.030;4.690;2022-10-31T00:32:48;3.70;;;1.37;;
22359;SDS011;11347;52.030;4.690;2022-10-31T00:35:14;2.20;;;0.97;;
22359;SDS011;11347;52.030;4.690;2022-10-31T00:37:39;2.67;;;1.10;;
22359;SDS011;11347;52.030;4.690;2022-10-31T00:40:05;3.20;;;1.17;;
22359;SDS011;11347;52.030;4.690;2022-10-31T00:42:31;1.27;;;0.80;;
22359;SDS011;11347;52.030;4.690;2022-10-31T00:44:57;1.80;;;1.00;;
22359;SDS011;11347;52.030;4.690;2022-10-31T00:47:22;2.70;;;1.10;;
22359;SDS011;11347;52.030;4.690;2022-10-31T00:49:48;1.80;;;0.90;;
22359;SDS011;11347;52.030;4.690;2022-10-31T00:52:13;2.90;;;1.10;;
22359;SDS011;11347;52.030;4.690;2022-10-31T00:54:39;2.67;;;1.20;;
22359;SDS011;11347;52.030;4.690;2022-10-31T00:57:04;2.33;;;1.10;;
22359;SDS011;11347;52.030;4.690;2022-10-31T00:59:30;3.50;;;1.20;;
22359;SDS011;11347;52.030;4.690;2022-10-31T01:01:55;2.53;;;0.90;;
22359;SDS011;11347;52.030;4.690;2022-10-31T01:04:21;2.67;;;1.10;;
22359;SDS011;11347;52.030;4.690;2022-10-31T01:06:46;2.40;;;1.00;;
22359;SDS011;11347;52.030;4.690;2022-10-31T01:09:12;2.07;;;1.10;;
22359;SDS011;11347;52.030;4.690;2022-10-31T01:11:37;2.03;;;1.00;;
22359;SDS011;11347;52.030;4.690;2022-10-31T01:14:03;2.13;;;1.00;;
22359;SDS011;11347;52.030;4.690;2022-10-31T01:16:29;2.10;;;0.90;;
22359;SDS011;11347;52.030;4.690;2022-10-31T01:18:54;1.87;;;0.97;;
22359;SDS011;11347;52.030;4.690;2022-10-31T01:21:24;2.27;;;1.10;;
22359;SDS011;11347;52.030;4.690;2022-10-31T01:23:52;2.43;;;0.90;;
22359;SDS011;11347;52.030;4.690;2022-10-31T01:26:20;3.67;;;0.90;;
22359;SDS011;11347;52.030;4.690;2022-10-31T01:28:57;1.63;;;0.80;;
22359;SDS011;11347;52.030;4.690;2022-10-31T01:31:32;2.23;;;1.00;;
22359;SDS011;11347;52.030;4.690;2022-10-31T01:33:59;3.57;;;0.97;;
22359;SDS011;11347;52.030;4.690;2022-10-31T01:36:26;2.20;;;0.90;;
22359;SDS011;11347;52.030;4.690;2022-10-31T01:39:01;2.60;;;1.10;;
22359;SDS011;11347;52.030;4.690;2022-10-31T01:41:30;2.23;;;1.00;;
22359;SDS011;11347;52.030;4.690;2022-10-31T01:43:58;2.17;;;1.00;;
22359;SDS011;11347;52.030;4.690;2022-10-31T01:46:27;1.43;;;0.80;;
22359;SDS011;11347;52.030;4.690;2022-10-31T01:48:58;2.30;;;1.10;;
22359;SDS011;11347;52.030;4.690;2022-10-31T01:51:30;2.77;;;0.67;;
22359;SDS011;11347;52.030;4.690;2022-10-31T01:54:04;2.10;;;0.90;;
22359;SDS011;11347;52.030;4.690;2022-10-31T01:56:32;2.30;;;0.80;;
22359;SDS011;11347;52.030;4.690;2022-10-31T01:59:01;2.77;;;1.07;;
22359;SDS011;11347;52.030;4.690;2022-10-31T02:01:32;1.50;;;0.80;;
22359;SDS011;11347;52.030;4.690;2022-10-31T02:03:57;2.83;;;1.07;;
22359;SDS011;11347;52.030;4.690;2022-10-31T02:06:27;1.43;;;0.90;;
22359;SDS011;11347;52.030;4.690;2022-10-31T02:09:04;3.20;;;1.20;;
22359;SDS011;11347;52.030;4.690;2022-10-31T02:11:30;2.73;;;0.80;;
22359;SDS011;11347;52.030;4.690;2022-10-31T02:13:57;4.80;;;0.90;;
22359;SDS011;11347;52.030;4.690;2022-10-31T02:16:24;1.63;;;0.87;;
22359;SDS011;11347;52.030;4.690;2022-10-31T02:18:50;2.83;;;0.90;;
22359;SDS011;11347;52.030;4.690;2022-10-31T02:21:19;2.07;;;1.00;;
22359;SDS011;11347;52.030;4.690;2022-10-31T02:26:57;2.70;;;0.80;;
22359;SDS011;11347;52.030;4.690;2022-10-31T02:32:21;3.17;;;1.10;;
22359;SDS011;11347;52.030;4.690;2022-10-31T02:40:33;2.60;;;1.00;;
22359;SDS011;11347;52.030;4.690;2022-10-31T02:48:48;2.33;;;0.90;;
22359;SDS011;11347;52.030;4.690;2022-10-31T02:51:20;1.27;;;0.80;;
22359;SDS011;11347;52.030;4.690;2022-10-31T02:53:46;2.97;;;1.20;;
22359;SDS011;11347;52.030;4.690;2022-10-31T02:56:12;1.10;;;0.80;;
22359;SDS011;11347;52.030;4.690;2022-10-31T02:58:42;1.30;;;0.90;;
22359;SDS011;11347;52.030;4.690;2022-10-31T03:01:33;2.33;;;0.87;;
22359;SDS011;11347;52.030;4.690;2022-10-31T03:06:56;2.10;;;0.80;;
22359;SDS011;11347;52.030;4.690;2022-10-31T03:12:30;2.10;;;0.93;;
22359;SDS011;11347;52.030;4.690;2022-10-31T03:15:08;3.03;;;1.10;;
22359;SDS011;11347;52.030;4.690;2022-10-31T03:17:59;1.70;;;0.77;;
22359;SDS011;11347;52.030;4.690;2022-10-31T03:20:39;3.87;;;1.10;;
22359;SDS011;11347;52.030;4.690;2022-10-31T03:23:19;2.70;;;1.37;;
22359;SDS011;11347;52.030;4.690;2022-10-31T03:25:47;2.40;;;1.00;;
22359;SDS011;11347;52.030;4.690;2022-10-31T03:28:14;3.57;;;1.23;;
22359;SDS011;11347;52.030;4.690;2022-10-31T03:30:44;2.50;;;1.20;;
22359;SDS011;11347;52.030;4.690;2022-10-31T03:33:15;3.33;;;1.30;;
22359;SDS011;11347;52.030;4.690;2022-10-31T03:35:47;3.27;;;1.13;;
22359;SDS011;11347;52.030;4.690;2022-10-31T03:38:15;1.80;;;1.07;;
22359;SDS011;11347;52.030;4.690;2022-10-31T03:40:43;2.50;;;1.30;;
22359;SDS011;11347;52.030;4.690;2022-10-31T03:43:13;2.67;;;1.03;;
22359;SDS011;11347;52.030;4.690;2022-10-31T03:45:45;2.90;;;1.23;;
22359;SDS011;11347;52.030;4.690;2022-10-31T03:48:15;1.70;;;1.00;;
22359;SDS011;11347;52.030;4.690;2022-10-31T03:53:30;2.40;;;1.20;;
22359;SDS011;11347;52.030;4.690;2022-10-31T03:56:09;2.07;;;1.20;;
22359;SDS011;11347;52.030;4.690;2022-10-31T03:58:42;1.77;;;1.10;;
22359;SDS011;11347;52.030;4.690;2022-10-31T04:01:16;2.43;;;1.50;;
22359;SDS011;11347;52.030;4.690;2022-10-31T04:03:45;1.90;;;1.10;;
22359;SDS011;11347;52.030;4.690;2022-10-31T04:06:12;2.93;;;1.20;;
22359;SDS011;11347;52.030;4.690;2022-10-31T04:08:42;2.33;;;1.20;;
22359;SDS011;11347;52.030;4.690;2022-10-31T04:11:13;2.93;;;1.27;;
22359;SDS011;11347;52.030;4.690;2022-10-31T04:13:42;2.83;;;1.37;;
22359;SDS011;11347;52.030;4.690;2022-10-31T04:16:10;2.57;;;1.30;;
22359;SDS011;11347;52.030;4.690;2022-10-31T04:18:37;2.17;;;1.40;;
22359;SDS011;11347;52.030;4.690;2022-10-31T04:21:04;2.67;;;1.40;;
22359;SDS011;11347;52.030;4.690;2022-10-31T04:23:31;2.63;;;1.30;;
22359;SDS011;11347;52.030;4.690;2022-10-31T04:25:58;2.30;;;1.20;;
22359;SDS011;11347;52.030;4.690;2022-10-31T04:28:23;3.57;;;1.37;;
22359;SDS011;11347;52.030;4.690;2022-10-31T04:30:49;2.47;;;1.37;;
22359;SDS011;11347;52.030;4.690;2022-10-31T04:33:14;2.40;;;1.20;;
22359;SDS011;11347;52.030;4.690;2022-10-31T04:35:40;1.67;;;1.37;;
22359;SDS011;11347;52.030;4.690;2022-10-31T04:38:06;2.53;;;1.53;;
22359;SDS011;11347;52.030;4.690;2022-10-31T04:40:31;4.07;;;1.40;;
22359;SDS011;11347;52.030;4.690;2022-10-31T04:42:57;2.80;;;1.63;;
22359;SDS011;11347;52.030;4.690;2022-10-31T04:45:22;3.07;;;1.40;;
22359;SDS011;11347;52.030;4.690;2022-10-31T04:47:48;3.10;;;1.60;;
22359;SDS011;11347;52.030;4.690;2022-10-31T04:50:14;2.77;;;1.63;;
22359;SDS011;11347;52.030;4.690;2022-10-31T04:52:40;3.30;;;1.70;;
22359;SDS011;11347;52.030;4.690;2022-10-31T04:55:06;3.63;;;1.77;;
22359;SDS011;11347;52.030;4.690;2022-10-31T04:57:32;2.53;;;1.50;;
22359;SDS011;11347;52.030;4.690;2022-10-31T04:59:57;3.17;;;1.60;;
22359;SDS011;11347;52.030;4.690;2022-10-31T05:02:23;3.03;;;1.70;;
22359;SDS011;11347;52.030;4.690;2022-10-31T05:04:48;2.50;;;1.63;;
22359;SDS011;11347;52.030;4.690;2022-10-31T05:07:14;2.87;;;1.63;;
22359;SDS011;11347;52.030;4.690;2022-10-31T05:09:39;3.17;;;1.60;;
22359;SDS011;11347;52.030;4.690;2022-10-31T05:12:05;5.53;;;1.70;;
22359;SDS011;11347;52.030;4.690;2022-10-31T05:14:30;3.73;;;1.70;;
22359;SDS011;11347;52.030;4.690;2022-10-31T05:16:56;3.33;;;1.50;;
22359;SDS011;11347;52.030;4.690;2022-10-31T05:19:21;3.00;;;1.93;;
22359;SDS011;11347;52.030;4.690;2022-10-31T05:21:47;3.97;;;2.10;;
22359;SDS011;11347;52.030;4.690;2022-10-31T05:24:12;3.37;;;1.90;;
22359;SDS011;11347;52.030;4.690;2022-10-31T05:26:38;5.50;;;2.00;;
22359;SDS011;11347;52.030;4.690;2022-10-31T05:29:03;3.80;;;2.10;;
22359;SDS011;11347;52.030;4.690;2022-10-31T05:31:29;2.87;;;1.70;;
22359;SDS011;11347;52.030;4.690;2022-10-31T05:33:55;3.03;;;1.77;;
22359;SDS011;11347;52.030;4.690;2022-10-31T05:36:20;4.20;;;1.87;;
22359;SDS011;11347;52.030;4.690;2022-10-31T05:38:46;3.17;;;1.90;;
22359;SDS011;11347;52.030;4.690;2022-10-31T05:41:11;5.50;;;2.10;;
22359;SDS011;11347;52.030;4.690;2022-10-31T05:43:37;3.20;;;2.07;;
22359;SDS011;11347;52.030;4.690;2022-10-31T05:46:02;3.37;;;2.20;;
22359;SDS011;11347;52.030;4.690;2022-10-31T05:48:28;5.40;;;2.10;;
22359;SDS011;11347;52.030;4.690;2022-10-31T05:50:53;5.73;;;2.40;;
22359;SDS011;11347;52.030;4.690;2022-10-31T05:53:19;4.50;;;2.17;;
22359;SDS011;11347;52.030;4.690;2022-10-31T05:55:44;3.73;;;2.10;;
22359;SDS011;11347;52.030;4.690;2022-10-31T05:58:10;3.70;;;2.10;;
22359;SDS011;11347;52.030;4.690;2022-10-31T06:00:36;4.23;;;2.40;;
22359;SDS011;11347;52.030;4.690;2022-10-31T06:03:08;6.50;;;2.67;;
22359;SDS011;11347;52.030;4.690;2022-10-31T06:05:34;3.77;;;2.27;;
22359;SDS011;11347;52.030;4.690;2022-10-31T06:08:00;3.80;;;2.33;;
22359;SDS011;11347;52.030;4.690;2022-10-31T06:10:26;4.23;;;2.13;;
22359;SDS011;11347;52.030;4.690;2022-10-31T06:12:52;4.67;;;2.37;;
22359;SDS011;11347;52.030;4.690;2022-10-31T06:15:18;6.40;;;2.53;;
22359;SDS011;11347;52.030;4.690;2022-10-31T06:17:44;5.60;;;2.47;;
22359;SDS011;11347;52.030;4.690;2022-10-31T06:20:09;5.57;;;2.40;;
22359;SDS011;11347;52.030;4.690;2022-10-31T06:22:35;5.13;;;2.30;;
22359;SDS011;11347;52.030;4.690;2022-10-31T06:25:01;3.80;;;2.30;;
22359;SDS011;11347;52.030;4.690;2022-10-31T06:27:26;3.63;;;2.17;;
22359;SDS011;11347;52.030;4.690;2022-10-31T06:29:52;3.87;;;2.13;;
22359;SDS011;11347;52.030;4.690;2022-10-31T06:32:18;6.07;;;2.60;;
22359;SDS011;11347;52.030;4.690;2022-10-31T06:34:43;3.13;;;2.40;;
22359;SDS011;11347;52.030;4.690;2022-10-31T06:37:10;4.00;;;2.17;;
22359;SDS011;11347;52.030;4.690;2022-10-31T06:39:36;4.37;;;2.40;;
22359;SDS011;11347;52.030;4.690;2022-10-31T06:42:02;6.57;;;2.60;;
22359;SDS011;11347;52.030;4.690;2022-10-31T06:44:28;4.43;;;2.20;;
22359;SDS011;11347;52.030;4.690;2022-10-31T06:46:54;4.10;;;2.50;;
22359;SDS011;11347;52.030;4.690;2022-10-31T06:49:20;4.43;;;2.40;;
22359;SDS011;11347;52.030;4.690;2022-10-31T06:51:49;6.17;;;2.73;;
22359;SDS011;11347;52.030;4.690;2022-10-31T06:54:15;5.50;;;2.33;;
22359;SDS011;11347;52.030;4.690;2022-10-31T06:56:41;5.13;;;2.37;;
22359;SDS011;11347;52.030;4.690;2022-10-31T06:59:07;4.90;;;2.70;;
22359;SDS011;11347;52.030;4.690;2022-10-31T07:01:33;5.30;;;2.83;;
22359;SDS011;11347;52.030;4.690;2022-10-31T07:03:58;5.47;;;2.70;;
22359;SDS011;11347;52.030;4.690;2022-10-31T07:06:24;6.43;;;2.70;;
22359;SDS011;11347;52.030;4.690;2022-10-31T07:08:49;4.80;;;2.20;;
22359;SDS011;11347;52.030;4.690;2022-10-31T07:11:15;4.03;;;2.40;;
22359;SDS011;11347;52.030;4.690;2022-10-31T07:13:40;5.70;;;2.73;;
22359;SDS011;11347;52.030;4.690;2022-10-31T07:16:06;6.30;;;3.07;;
22359;SDS011;11347;52.030;4.690;2022-10-31T07:18:32;5.87;;;2.57;;
22359;SDS011;11347;52.030;4.690;2022-10-31T07:20:58;5.03;;;2.63;;
22359;SDS011;11347;52.030;4.690;2022-10-31T07:23:24;7.47;;;2.80;;
22359;SDS011;11347;52.030;4.690;2022-10-31T07:25:54;6.13;;;2.63;;
22359;SDS011;11347;52.030;4.690;2022-10-31T07:28:23;7.13;;;3.10;;
22359;SDS011;11347;52.030;4.690;2022-10-31T07:30:50;7.13;;;3.30;;
22359;SDS011;11347;52.030;4.690;2022-10-31T07:33:21;8.13;;;3.17;;
22359;SDS011;11347;52.030;4.690;2022-10-31T07:35:47;6.30;;;3.20;;
22359;SDS011;11347;52.030;4.690;2022-10-31T07:38:13;6.80;;;3.30;;
22359;SDS011;11347;52.030;4.690;2022-10-31T07:40:39;6.77;;;3.20;;
22359;SDS011;11347;52.030;4.690;2022-10-31T07:43:06;9.40;;;3.70;;
22359;SDS011;11347;52.030;4.690;2022-10-31T07:45:33;7.80;;;3.53;;
22359;SDS011;11347;52.030;4.690;2022-10-31T07:47:58;7.20;;;3.00;;
22359;SDS011;11347;52.030;4.690;2022-10-31T07:50:28;10.73;;;3.80;;
22359;SDS011;11347;52.030;4.690;2022-10-31T07:53:01;7.93;;;3.60;;
22359;SDS011;11347;52.030;4.690;2022-10-31T07:55:28;8.90;;;3.70;;
22359;SDS011;11347;52.030;4.690;2022-10-31T07:58:08;9.10;;;3.80;;
22359;SDS011;11347;52.030;4.690;2022-10-31T08:00:36;8.27;;;3.30;;
22359;SDS011;11347;52.030;4.690;2022-10-31T08:03:07;10.20;;;4.30;;
22359;SDS011;11347;52.030;4.690;2022-10-31T08:05:34;11.20;;;3.93;;
22359;SDS011;11347;52.030;4.690;2022-10-31T08:08:00;8.50;;;3.60;;
22359;SDS011;11347;52.030;4.690;2022-10-31T08:10:26;7.80;;;3.70;;
22359;SDS011;11347;52.030;4.690;2022-10-31T08:12:59;10.00;;;4.10;;
22359;SDS011;11347;52.030;4.690;2022-10-31T08:15:26;5.57;;;3.37;;
22359;SDS011;11347;52.030;4.690;2022-10-31T08:17:52;8.97;;;3.93;;
22359;SDS011;11347;52.030;4.690;2022-10-31T08:20:18;9.50;;;4.20;;
22359;SDS011;11347;52.030;4.690;2022-10-31T08:25:19;8.87;;;4.17;;
22359;SDS011;11347;52.030;4.690;2022-10-31T08:27:51;10.77;;;4.50;;
22359;SDS011;11347;52.030;4.690;2022-10-31T08:30:19;9.00;;;4.20;;
22359;SDS011;11347;52.030;4.690;2022-10-31T08:32:45;8.60;;;3.80;;
22359;SDS011;11347;52.030;4.690;2022-10-31T08:35:11;10.03;;;4.00;;
22359;SDS011;11347;52.030;4.690;2022-10-31T08:37:37;9.57;;;4.20;;
22359;SDS011;11347;52.030;4.690;2022-10-31T08:40:03;9.57;;;4.10;;
22359;SDS011;11347;52.030;4.690;2022-10-31T08:42:29;9.93;;;4.27;;
22359;SDS011;11347;52.030;4.690;2022-10-31T08:44:54;7.07;;;4.10;;
22359;SDS011;11347;52.030;4.690;2022-10-31T08:47:20;8.57;;;3.83;;
22359;SDS011;11347;52.030;4.690;2022-10-31T08:49:45;11.97;;;4.43;;
22359;SDS011;11347;52.030;4.690;2022-10-31T08:52:11;11.67;;;4.63;;
22359;SDS011;11347;52.030;4.690;2022-10-31T08:54:36;10.30;;;4.90;;
22359;SDS011;11347;52.030;4.690;2022-10-31T08:57:02;9.57;;;4.30;;
22359;SDS011;11347;52.030;4.690;2022-10-31T08:59:27;9.03;;;3.97;;
22359;SDS011;11347;52.030;4.690;2022-10-31T09:01:53;8.63;;;4.13;;
22359;SDS011;11347;52.030;4.690;2022-10-31T09:04:18;7.93;;;3.77;;
22359;SDS011;11347;52.030;4.690;2022-10-31T09:06:44;9.77;;;4.40;;
22359;SDS011;11347;52.030;4.690;2022-10-31T09:09:09;9.83;;;3.87;;
22359;SDS011;11347;52.030;4.690;2022-10-31T09:11:35;8.63;;;4.80;;
22359;SDS011;11347;52.030;4.690;2022-10-31T09:14:00;9.17;;;4.43;;
22359;SDS011;11347;52.030;4.690;2022-10-31T09:16:26;9.67;;;4.27;;
22359;SDS011;11347;52.030;4.690;2022-10-31T09:18:51;9.63;;;3.97;;
22359;SDS011;11347;52.030;4.690;2022-10-31T09:21:17;7.37;;;3.60;;
22359;SDS011;11347;52.030;4.690;2022-10-31T09:23:42;11.97;;;3.90;;
22359;SDS011;11347;52.030;4.690;2022-10-31T09:26:08;8.97;;;3.80;;
22359;SDS011;11347;52.030;4.690;2022-10-31T09:28:33;8.57;;;3.67;;
22359;SDS011;11347;52.030;4.690;2022-10-31T09:30:59;8.77;;;3.97;;
22359;SDS011;11347;52.030;4.690;2022-10-31T09:33:25;7.63;;;3.97;;
22359;SDS011;11347;52.030;4.690;2022-10-31T09:35:50;6.87;;;4.20;;
22359;SDS011;11347;52.030;4.690;2022-10-31T09:38:17;7.40;;;3.60;;
22359;SDS011;11347;52.030;4.690;2022-10-31T09:40:49;7.00;;;3.60;;
22359;SDS011;11347;52.030;4.690;2022-10-31T09:51:39;8.67;;;3.63;;
22359;SDS011;11347;52.030;4.690;2022-10-31T09:54:10;7.73;;;3.87;;
22359;SDS011;11347;52.030;4.690;2022-10-31T09:56:49;7.17;;;3.37;;
22359;SDS011;11347;52.030;4.690;2022-10-31T09:59:25;7.80;;;3.90;;
22359;SDS011;11347;52.030;4.690;2022-10-31T10:02:02;5.83;;;3.40;;
22359;SDS011;11347;52.030;4.690;2022-10-31T10:07:44;6.43;;;3.53;;
22359;SDS011;11347;52.030;4.690;2022-10-31T10:18:01;7.60;;;3.40;;
22359;SDS011;11347;52.030;4.690;2022-10-31T10:25:38;8.57;;;3.67;;
22359;SDS011;11347;52.030;4.690;2022-10-31T10:33:36;8.13;;;3.80;;
22359;SDS011;11347;52.030;4.690;2022-10-31T10:36:12;7.33;;;3.37;;
22359;SDS011;11347;52.030;4.690;2022-10-31T10:39:03;6.90;;;3.47;;
22359;SDS011;11347;52.030;4.690;2022-10-31T10:41:33;6.93;;;3.50;;
22359;SDS011;11347;52.030;4.690;2022-10-31T10:44:11;7.57;;;3.73;;
22359;SDS011;11347;52.030;4.690;2022-10-31T10:46:40;7.50;;;3.43;;
22359;SDS011;11347;52.030;4.690;2022-10-31T10:52:15;6.83;;;3.37;;
22359;SDS011;11347;52.030;4.690;2022-10-31T10:55:03;6.77;;;3.40;;
22359;SDS011;11347;52.030;4.690;2022-10-31T11:00:42;6.87;;;3.60;;
22359;SDS011;11347;52.030;4.690;2022-10-31T11:03:11;7.50;;;3.67;;
22359;SDS011;11347;52.030;4.690;2022-10-31T11:08:23;7.03;;;3.70;;
22359;SDS011;11347;52.030;4.690;2022-10-31T11:13:52;6.73;;;3.50;;
22359;SDS011;11347;52.030;4.690;2022-10-31T11:16:39;5.87;;;3.63;;
22359;SDS011;11347;52.030;4.690;2022-10-31T11:21:33;7.43;;;3.37;;
22359;SDS011;11347;52.030;4.690;2022-10-31T11:24:03;5.50;;;3.30;;
22359;SDS011;11347;52.030;4.690;2022-10-31T11:26:32;7.00;;;3.70;;
22359;SDS011;11347;52.030;4.690;2022-10-31T11:29:00;8.77;;;3.57;;
22359;SDS011;11347;52.030;4.690;2022-10-31T11:31:28;7.47;;;3.50;;
22359;SDS011;11347;52.030;4.690;2022-10-31T11:33:58;7.87;;;3.57;;
22359;SDS011;11347;52.030;4.690;2022-10-31T11:36:26;6.47;;;3.23;;
22359;SDS011;11347;52.030;4.690;2022-10-31T11:38:55;6.33;;;3.40;;
22359;SDS011;11347;52.030;4.690;2022-10-31T11:44:00;6.53;;;3.30;;
22359;SDS011;11347;52.030;4.690;2022-10-31T11:49:00;7.50;;;3.23;;
22359;SDS011;11347;52.030;4.690;2022-10-31T11:51:27;5.67;;;3.07;;
22359;SDS011;11347;52.030;4.690;2022-10-31T11:53:55;5.73;;;3.20;;
22359;SDS011;11347;52.030;4.690;2022-10-31T11:56:23;7.50;;;3.23;;
22359;SDS011;11347;52.030;4.690;2022-10-31T11:59:01;5.77;;;3.40;;
22359;SDS011;11347;52.030;4.690;2022-10-31T12:01:28;6.37;;;3.30;;
22359;SDS011;11347;52.030;4.690;2022-10-31T12:04:11;6.23;;;3.20;;
22359;SDS011;11347;52.030;4.690;2022-10-31T12:06:38;5.13;;;3.17;;
22359;SDS011;11347;52.030;4.690;2022-10-31T12:09:25;5.17;;;3.37;;
22359;SDS011;11347;52.030;4.690;2022-10-31T12:12:28;7.47;;;3.30;;
22359;SDS011;11347;52.030;4.690;2022-10-31T12:15:15;8.53;;;3.47;;
22359;SDS011;11347;52.030;4.690;2022-10-31T12:18:11;6.23;;;3.40;;
22359;SDS011;11347;52.030;4.690;2022-10-31T12:24:00;7.17;;;3.50;;
22359;SDS011;11347;52.030;4.690;2022-10-31T12:34:38;5.00;;;2.97;;
22359;SDS011;11347;52.030;4.690;2022-10-31T12:40:17;6.37;;;3.10;;
22359;SDS011;11347;52.030;4.690;2022-10-31T12:43:27;6.67;;;3.40;;
22359;SDS011;11347;52.030;4.690;2022-10-31T12:45:55;6.40;;;3.70;;
22359;SDS011;11347;52.030;4.690;2022-10-31T12:58:45;6.90;;;3.63;;
22359;SDS011;11347;52.030;4.690;2022-10-31T13:01:19;6.43;;;3.73;;
22359;SDS011;11347;52.030;4.690;2022-10-31T13:04:17;5.93;;;3.27;;
22359;SDS011;11347;52.030;4.690;2022-10-31T13:06:51;6.47;;;3.50;;
22359;SDS011;11347;52.030;4.690;2022-10-31T13:09:23;9.63;;;3.80;;
22359;SDS011;11347;52.030;4.690;2022-10-31T13:11:56;6.70;;;4.00;;
22359;SDS011;11347;52.030;4.690;2022-10-31T13:17:24;8.37;;;4.10;;
22359;SDS011;11347;52.030;4.690;2022-10-31T13:19:50;9.13;;;4.07;;
22359;SDS011;11347;52.030;4.690;2022-10-31T13:22:22;7.10;;;3.80;;
22359;SDS011;11347;52.030;4.690;2022-10-31T13:27:28;8.10;;;3.93;;
22359;SDS011;11347;52.030;4.690;2022-10-31T13:30:03;8.03;;;4.17;;
22359;SDS011;11347;52.030;4.690;2022-10-31T13:35:16;6.97;;;3.97;;
22359;SDS011;11347;52.030;4.690;2022-10-31T13:38:03;9.70;;;4.10;;
22359;SDS011;11347;52.030;4.690;2022-10-31T13:40:45;10.37;;;3.93;;
22359;SDS011;11347;52.030;4.690;2022-10-31T13:45:47;7.57;;;4.20;;
22359;SDS011;11347;52.030;4.690;2022-10-31T13:50:59;9.23;;;4.53;;
22359;SDS011;11347;52.030;4.690;2022-10-31T13:53:56;7.03;;;4.33;;
22359;SDS011;11347;52.030;4.690;2022-10-31T13:56:47;8.63;;;4.33;;
22359;SDS011;11347;52.030;4.690;2022-10-31T13:59:21;11.63;;;5.03;;
22359;SDS011;11347;52.030;4.690;2022-10-31T14:01:49;7.80;;;4.43;;
22359;SDS011;11347;52.030;4.690;2022-10-31T14:04:31;7.70;;;4.60;;
22359;SDS011;11347;52.030;4.690;2022-10-31T14:07:09;7.73;;;4.30;;
22359;SDS011;11347;52.030;4.690;2022-10-31T14:14:58;7.70;;;4.53;;
22359;SDS011;11347;52.030;4.690;2022-10-31T14:17:28;8.07;;;4.60;;
22359;SDS011;11347;52.030;4.690;2022-10-31T14:20:19;11.30;;;4.80;;
22359;SDS011;11347;52.030;4.690;2022-10-31T14:25:53;9.60;;;4.70;;
22359;SDS011;11347;52.030;4.690;2022-10-31T14:28:30;9.67;;;5.00;;
22359;SDS011;11347;52.030;4.690;2022-10-31T14:30:58;9.67;;;4.90;;
22359;SDS011;11347;52.030;4.690;2022-10-31T14:33:28;8.87;;;4.83;;
22359;SDS011;11347;52.030;4.690;2022-10-31T14:36:11;9.30;;;4.60;;
22359;SDS011;11347;52.030;4.690;2022-10-31T14:39:14;8.80;;;5.03;;
22359;SDS011;11347;52.030;4.690;2022-10-31T14:42:04;11.33;;;5.60;;
22359;SDS011;11347;52.030;4.690;2022-10-31T14:47:19;10.93;;;5.37;;
22359;SDS011;11347;52.030;4.690;2022-10-31T14:52:37;9.50;;;5.40;;
22359;SDS011;11347;52.030;4.690;2022-10-31T14:55:05;11.07;;;5.33;;
22359;SDS011;11347;52.030;4.690;2022-10-31T14:57:36;9.10;;;5.40;;
22359;SDS011;11347;52.030;4.690;2022-10-31T15:00:06;10.83;;;5.37;;
22359;SDS011;11347;52.030;4.690;2022-10-31T15:05:20;12.07;;;6.23;;
22359;SDS011;11347;52.030;4.690;2022-10-31T15:07:50;10.33;;;5.23;;
22359;SDS011;11347;52.030;4.690;2022-10-31T15:10:22;11.40;;;5.60;;
22359;SDS011;11347;52.030;4.690;2022-10-31T15:12:51;10.00;;;5.47;;
22359;SDS011;11347;52.030;4.690;2022-10-31T15:15:24;11.30;;;5.90;;
22359;SDS011;11347;52.030;4.690;2022-10-31T15:17:58;9.57;;;5.20;;
22359;SDS011;11347;52.030;4.690;2022-10-31T15:20:26;10.63;;;5.73;;
22359;SDS011;11347;52.030;4.690;2022-10-31T15:22:57;10.47;;;5.70;;
22359;SDS011;11347;52.030;4.690;2022-10-31T15:25:24;10.83;;;5.97;;
22359;SDS011;11347;52.030;4.690;2022-10-31T15:27:52;9.47;;;5.57;;
22359;SDS011;11347;52.030;4.690;2022-10-31T15:32:45;11.43;;;6.20;;
22359;SDS011;11347;52.030;4.690;2022-10-31T15:35:19;12.10;;;6.03;;
22359;SDS011;11347;52.030;4.690;2022-10-31T15:37:49;10.50;;;5.70;;
22359;SDS011;11347;52.030;4.690;2022-10-31T15:40:17;12.80;;;5.67;;
22359;SDS011;11347;52.030;4.690;2022-10-31T15:42:45;10.93;;;5.70;;
22359;SDS011;11347;52.030;4.690;2022-10-31T15:45:21;10.93;;;5.90;;
22359;SDS011;11347;52.030;4.690;2022-10-31T15:50:21;13.50;;;6.30;;
22359;SDS011;11347;52.030;4.690;2022-10-31T15:52:53;10.33;;;5.80;;
22359;SDS011;11347;52.030;4.690;2022-10-31T15:55:20;15.50;;;6.33;;
22359;SDS011;11347;52.030;4.690;2022-10-31T15:57:55;16.93;;;6.80;;
22359;SDS011;11347;52.030;4.690;2022-10-31T16:00:36;11.33;;;5.93;;
22359;SDS011;11347;52.030;4.690;2022-10-31T16:05:49;12.03;;;6.17;;
22359;SDS011;11347;52.030;4.690;2022-10-31T16:10:57;10.43;;;5.70;;
22359;SDS011;11347;52.030;4.690;2022-10-31T16:13:33;10.23;;;5.67;;
22359;SDS011;11347;52.030;4.690;2022-10-31T16:16:04;11.37;;;5.83;;
22359;SDS011;11347;52.030;4.690;2022-10-31T16:18:38;11.30;;;5.70;;
22359;SDS011;11347;52.030;4.690;2022-10-31T16:21:06;11.23;;;5.70;;
22359;SDS011;11347;52.030;4.690;2022-10-31T16:23:33;13.17;;;5.90;;
22359;SDS011;11347;52.030;4.690;2022-10-31T16:25:59;15.10;;;6.03;;
22359;SDS011;11347;52.030;4.690;2022-10-31T16:28:31;10.57;;;5.63;;
22359;SDS011;11347;52.030;4.690;2022-10-31T16:30:58;11.87;;;5.80;;
22359;SDS011;11347;52.030;4.690;2022-10-31T16:33:31;11.33;;;5.43;;
22359;SDS011;11347;52.030;4.690;2022-10-31T16:36:28;14.40;;;5.73;;
22359;SDS011;11347;52.030;4.690;2022-10-31T16:38:52;12.00;;;5.57;;
22359;SDS011;11347;52.030;4.690;2022-10-31T16:41:21;12.50;;;5.90;;
22359;SDS011;11347;52.030;4.690;2022-10-31T16:43:47;9.60;;;5.63;;
22359;SDS011;11347;52.030;4.690;2022-10-31T16:46:18;10.40;;;5.40;;
22359;SDS011;11347;52.030;4.690;2022-10-31T16:48:49;10.90;;;5.33;;
22359;SDS011;11347;52.030;4.690;2022-10-31T16:51:15;11.83;;;6.10;;
22359;SDS011;11347;52.030;4.690;2022-10-31T16:53:41;9.93;;;5.60;;
22359;SDS011;11347;52.030;4.690;2022-10-31T16:56:10;10.37;;;5.53;;
22359;SDS011;11347;52.030;4.690;2022-10-31T16:58:42;10.93;;;5.47;;
22359;SDS011;11347;52.030;4.690;2022-10-31T17:01:09;11.40;;;6.13;;
22359;SDS011;11347;52.030;4.690;2022-10-31T17:03:36;11.13;;;5.67;;
22359;SDS011;11347;52.030;4.690;2022-10-31T17:06:01;9.83;;;5.53;;
22359;SDS011;11347;52.030;4.690;2022-10-31T17:08:27;12.50;;;5.53;;
22359;SDS011;11347;52.030;4.690;2022-10-31T17:10:53;11.40;;;5.40;;
22359;SDS011;11347;52.030;4.690;2022-10-31T17:13:22;11.00;;;5.47;;
22359;SDS011;11347;52.030;4.690;2022-10-31T17:15:50;13.43;;;5.47;;
22359;SDS011;11347;52.030;4.690;2022-10-31T17:18:17;12.03;;;5.63;;
22359;SDS011;11347;52.030;4.690;2022-10-31T17:20:43;8.30;;;4.73;;
22359;SDS011;11347;52.030;4.690;2022-10-31T17:23:10;10.73;;;5.13;;